sensor_id;sensor_type;location;lat;lon;timestamp;pressure;altitude;pressure_sealevel;temperature;humidity
54948;BME280;41113;41.882;12.530;2023-04-28T00:00:27;101458.47;;;14.40;61.95
54948;BME280;41113;41.882;12.530;2023-04-28T00:02:52;101455.75;;;14.40;61.87
54948;BME280;41113;41.882;12.530;2023-04-28T00:05:18;101466.03;;;14.46;61.79
54948;BME280;41113;41.882;12.530;2023-04-28T00:07:44;101464.75;;;14.50;60.99
54948;BME280;41113;41.882;12.530;2023-04-28T00:10:09;101469.13;;;14.42;61.02
54948;BME280;41113;41.882;12.530;2023-04-28T00:12:35;101469.59;;;14.47;61.35
54948;BME280;41113;41.882;12.530;2023-04-28T00:15:00;101470.88;;;14.43;60.76
54948;BME280;41113;41.882;12.530;2023-04-28T00:17:26;101466.56;;;14.40;61.69
54948;BME280;41113;41.882;12.530;2023-04-28T00:19:51;101465.59;;;14.60;60.33
54948;BME280;41113;41.882;12.530;2023-04-28T00:22:17;101463.44;;;14.74;59.83
54948;BME280;41113;41.882;12.530;2023-04-28T00:24:42;101464.59;;;14.61;60.04
54948;BME280;41113;41.882;12.530;2023-04-28T00:27:09;101454.94;;;14.49;60.04
54948;BME280;41113;41.882;12.530;2023-04-28T00:29:34;101450.66;;;14.56;59.95
54948;BME280;41113;41.882;12.530;2023-04-28T00:32:01;101457.06;;;14.55;60.13
54948;BME280;41113;41.882;12.530;2023-04-28T00:34:26;101461.03;;;14.61;60.04
54948;BME280;41113;41.882;12.530;2023-04-28T00:36:54;101457.34;;;14.52;60.04
54948;BME280;41113;41.882;12.530;2023-04-28T00:39:19;101454.50;;;14.44;60.58
54948;BME280;41113;41.882;12.530;2023-04-28T00:41:46;101456.03;;;14.37;60.53
54948;BME280;41113;41.882;12.530;2023-04-28T00:44:11;101449.47;;;14.30;61.00
54948;BME280;41113;41.882;12.530;2023-04-28T00:46:37;101445.06;;;14.29;61.35
54948;BME280;41113;41.882;12.530;2023-04-28T00:49:03;101455.63;;;14.32;60.92
54948;BME280;41113;41.882;12.530;2023-04-28T00:51:28;101461.44;;;14.37;61.76
54948;BME280;41113;41.882;12.530;2023-04-28T00:53:54;101452.19;;;14.30;61.20
54948;BME280;41113;41.882;12.530;2023-04-28T00:56:21;101457.31;;;14.33;61.28
54948;BME280;41113;41.882;12.530;2023-04-28T00:58:46;101454.06;;;14.39;61.26
54948;BME280;41113;41.882;12.530;2023-04-28T01:01:12;101456.59;;;14.21;62.54
54948;BME280;41113;41.882;12.530;2023-04-28T01:03:39;101459.16;;;14.04;63.59
54948;BME280;41113;41.882;12.530;2023-04-28T01:06:05;101456.81;;;13.89;64.42
54948;BME280;41113;41.882;12.530;2023-04-28T01:08:32;101447.56;;;13.82;63.74
54948;BME280;41113;41.882;12.530;2023-04-28T01:10:57;101453.69;;;13.84;63.32
54948;BME280;41113;41.882;12.530;2023-04-28T01:13:23;101458.53;;;13.90;62.37
54948;BME280;41113;41.882;12.530;2023-04-28T01:15:49;101458.84;;;14.07;61.79
54948;BME280;41113;41.882;12.530;2023-04-28T01:18:14;101460.00;;;14.14;61.30
54948;BME280;41113;41.882;12.530;2023-04-28T01:20:40;101469.09;;;14.13;61.43
54948;BME280;41113;41.882;12.530;2023-04-28T01:23:13;101473.63;;;14.02;62.01
54948;BME280;41113;41.882;12.530;2023-04-28T01:25:40;101473.91;;;13.99;62.02
54948;BME280;41113;41.882;12.530;2023-04-28T01:28:06;101470.31;;;13.89;62.42
54948;BME280;41113;41.882;12.530;2023-04-28T01:30:32;101467.34;;;13.83;63.39
54948;BME280;41113;41.882;12.530;2023-04-28T01:32:58;101472.84;;;13.72;62.96
54948;BME280;41113;41.882;12.530;2023-04-28T01:35:26;101466.47;;;13.73;62.51
54948;BME280;41113;41.882;12.530;2023-04-28T01:37:51;101472.41;;;13.66;63.04
54948;BME280;41113;41.882;12.530;2023-04-28T01:40:17;101470.44;;;13.68;62.75
54948;BME280;41113;41.882;12.530;2023-04-28T01:42:42;101466.69;;;13.60;63.86
54948;BME280;41113;41.882;12.530;2023-04-28T01:45:08;101465.53;;;13.53;63.28
54948;BME280;41113;41.882;12.530;2023-04-28T01:47:33;101468.84;;;13.66;62.85
54948;BME280;41113;41.882;12.530;2023-04-28T01:49:59;101469.22;;;13.52;64.53
54948;BME280;41113;41.882;12.530;2023-04-28T01:52:24;101478.75;;;13.56;64.54
54948;BME280;41113;41.882;12.530;2023-04-28T01:54:51;101481.72;;;13.53;63.93
54948;BME280;41113;41.882;12.530;2023-04-28T01:57:16;101477.16;;;13.44;64.95
54948;BME280;41113;41.882;12.530;2023-04-28T01:59:42;101479.16;;;13.51;64.00
54948;BME280;41113;41.882;12.530;2023-04-28T02:02:07;101484.22;;;13.35;64.83
54948;BME280;41113;41.882;12.530;2023-04-28T02:04:32;101490.97;;;13.29;64.93
54948;BME280;41113;41.882;12.530;2023-04-28T02:06:58;101484.13;;;13.25;65.26
54948;BME280;41113;41.882;12.530;2023-04-28T02:09:24;101477.69;;;13.37;63.97
54948;BME280;41113;41.882;12.530;2023-04-28T02:11:49;101475.50;;;13.31;64.32
54948;BME280;41113;41.882;12.530;2023-04-28T02:14:15;101471.66;;;13.24;64.26
54948;BME280;41113;41.882;12.530;2023-04-28T02:16:40;101477.44;;;13.20;63.91
54948;BME280;41113;41.882;12.530;2023-04-28T02:19:05;101479.88;;;13.23;64.14
54948;BME280;41113;41.882;12.530;2023-04-28T02:21:31;101479.78;;;13.13;63.81
54948;BME280;41113;41.882;12.530;2023-04-28T02:23:57;101487.16;;;13.11;63.68
54948;BME280;41113;41.882;12.530;2023-04-28T02:26:22;101488.38;;;13.18;63.50
54948;BME280;41113;41.882;12.530;2023-04-28T02:28:48;101483.44;;;13.23;63.13
54948;BME280;41113;41.882;12.530;2023-04-28T02:31:14;101481.59;;;13.03;64.80
54948;BME280;41113;41.882;12.530;2023-04-28T02:33:39;101479.94;;;12.91;64.50
54948;BME280;41113;41.882;12.530;2023-04-28T02:36:06;101487.44;;;12.87;64.57
54948;BME280;41113;41.882;12.530;2023-04-28T02:38:32;101486.13;;;12.82;65.43
54948;BME280;41113;41.882;12.530;2023-04-28T02:41:05;101483.16;;;12.85;66.32
54948;BME280;41113;41.882;12.530;2023-04-28T02:43:31;101480.81;;;12.70;66.73
54948;BME280;41113;41.882;12.530;2023-04-28T02:45:57;101479.81;;;12.71;68.36
54948;BME280;41113;41.882;12.530;2023-04-28T02:48:23;101484.94;;;12.74;69.02
54948;BME280;41113;41.882;12.530;2023-04-28T02:50:49;101479.81;;;12.71;68.89
54948;BME280;41113;41.882;12.530;2023-04-28T02:53:14;101479.22;;;12.89;68.12
54948;BME280;41113;41.882;12.530;2023-04-28T02:55:40;101487.44;;;13.08;67.31
54948;BME280;41113;41.882;12.530;2023-04-28T02:58:05;101485.91;;;12.94;68.30
54948;BME280;41113;41.882;12.530;2023-04-28T03:00:31;101504.28;;;12.80;69.99
54948;BME280;41113;41.882;12.530;2023-04-28T03:02:56;101506.75;;;12.71;70.79
54948;BME280;41113;41.882;12.530;2023-04-28T03:05:21;101497.88;;;12.81;69.47
54948;BME280;41113;41.882;12.530;2023-04-28T03:07:47;101502.03;;;12.85;70.04
54948;BME280;41113;41.882;12.530;2023-04-28T03:10:14;101508.28;;;13.06;68.46
54948;BME280;41113;41.882;12.530;2023-04-28T03:12:39;101509.69;;;13.21;67.67
54948;BME280;41113;41.882;12.530;2023-04-28T03:15:04;101509.41;;;13.24;67.86
54948;BME280;41113;41.882;12.530;2023-04-28T03:17:32;101508.09;;;13.39;66.92
54948;BME280;41113;41.882;12.530;2023-04-28T03:19:58;101501.59;;;13.52;67.01
54948;BME280;41113;41.882;12.530;2023-04-28T03:22:23;101516.72;;;13.33;67.53
54948;BME280;41113;41.882;12.530;2023-04-28T03:24:49;101514.59;;;13.37;66.92
54948;BME280;41113;41.882;12.530;2023-04-28T03:27:14;101518.09;;;13.07;68.27
54948;BME280;41113;41.882;12.530;2023-04-28T03:29:40;101518.72;;;12.78;69.83
54948;BME280;41113;41.882;12.530;2023-04-28T03:32:05;101517.56;;;12.60;71.88
54948;BME280;41113;41.882;12.530;2023-04-28T03:34:30;101522.09;;;12.39;72.43
54948;BME280;41113;41.882;12.530;2023-04-28T03:36:56;101516.84;;;12.26;73.58
54948;BME280;41113;41.882;12.530;2023-04-28T03:39:21;101517.34;;;12.20;72.70
54948;BME280;41113;41.882;12.530;2023-04-28T03:41:46;101517.88;;;12.14;73.79
54948;BME280;41113;41.882;12.530;2023-04-28T03:44:12;101512.44;;;12.36;72.70
54948;BME280;41113;41.882;12.530;2023-04-28T03:46:37;101514.53;;;12.22;73.44
54948;BME280;41113;41.882;12.530;2023-04-28T03:49:04;101518.63;;;12.05;72.85
54948;BME280;41113;41.882;12.530;2023-04-28T03:51:30;101512.13;;;12.07;72.96
54948;BME280;41113;41.882;12.530;2023-04-28T03:53:57;101519.22;;;12.08;72.44
54948;BME280;41113;41.882;12.530;2023-04-28T03:56:24;101516.16;;;12.13;72.40
54948;BME280;41113;41.882;12.530;2023-04-28T03:58:49;101516.50;;;12.20;71.61
54948;BME280;41113;41.882;12.530;2023-04-28T04:01:17;101520.66;;;12.24;71.48
54948;BME280;41113;41.882;12.530;2023-04-28T04:03:42;101519.66;;;12.25;71.06
54948;BME280;41113;41.882;12.530;2023-04-28T04:06:08;101521.66;;;12.11;71.07
54948;BME280;41113;41.882;12.530;2023-04-28T04:08:33;101517.13;;;12.01;71.64
54948;BME280;41113;41.882;12.530;2023-04-28T04:10:59;101520.69;;;12.12;71.31
54948;BME280;41113;41.882;12.530;2023-04-28T04:13:25;101520.00;;;12.31;70.90
54948;BME280;41113;41.882;12.530;2023-04-28T04:15:50;101517.06;;;12.34;70.46
54948;BME280;41113;41.882;12.530;2023-04-28T04:18:17;101522.97;;;12.28;70.23
54948;BME280;41113;41.882;12.530;2023-04-28T04:20:42;101518.88;;;12.45;69.97
54948;BME280;41113;41.882;12.530;2023-04-28T04:23:09;101517.28;;;12.42;70.28
54948;BME280;41113;41.882;12.530;2023-04-28T04:25:36;101528.34;;;12.28;71.18
54948;BME280;41113;41.882;12.530;2023-04-28T04:28:01;101527.28;;;12.20;71.14
54948;BME280;41113;41.882;12.530;2023-04-28T04:30:27;101523.09;;;12.59;70.63
54948;BME280;41113;41.882;12.530;2023-04-28T04:32:53;101516.47;;;13.67;66.75
54948;BME280;41113;41.882;12.530;2023-04-28T04:35:18;101525.66;;;14.74;62.89
54948;BME280;41113;41.882;12.530;2023-04-28T04:37:43;101525.50;;;15.51;59.64
54948;BME280;41113;41.882;12.530;2023-04-28T04:40:09;101529.38;;;16.13;57.13
54948;BME280;41113;41.882;12.530;2023-04-28T04:42:34;101528.09;;;16.53;55.31
54948;BME280;41113;41.882;12.530;2023-04-28T04:45:00;101525.97;;;16.92;53.65
54948;BME280;41113;41.882;12.530;2023-04-28T04:47:25;101520.44;;;17.01;53.23
54948;BME280;41113;41.882;12.530;2023-04-28T04:49:51;101523.06;;;17.37;53.14
54948;BME280;41113;41.882;12.530;2023-04-28T04:52:17;101527.09;;;17.85;51.90
54948;BME280;41113;41.882;12.530;2023-04-28T04:54:43;101519.09;;;18.25;48.76
54948;BME280;41113;41.882;12.530;2023-04-28T04:57:09;101514.41;;;18.60;47.37
54948;BME280;41113;41.882;12.530;2023-04-28T04:59:34;101516.06;;;19.42;46.33
54948;BME280;41113;41.882;12.530;2023-04-28T05:01:59;101519.13;;;19.64;47.04
54948;BME280;41113;41.882;12.530;2023-04-28T05:04:25;101518.59;;;20.07;43.24
54948;BME280;41113;41.882;12.530;2023-04-28T05:06:50;101528.66;;;19.43;44.97
54948;BME280;41113;41.882;12.530;2023-04-28T05:09:16;101533.81;;;19.06;46.90
54948;BME280;41113;41.882;12.530;2023-04-28T05:11:42;101535.19;;;18.85;46.95
54948;BME280;41113;41.882;12.530;2023-04-28T05:14:07;101547.44;;;19.06;46.19
54948;BME280;41113;41.882;12.530;2023-04-28T05:16:32;101549.56;;;20.14;44.72
54948;BME280;41113;41.882;12.530;2023-04-28T05:18:58;101539.88;;;20.51;43.40
54948;BME280;41113;41.882;12.530;2023-04-28T05:21:23;101541.75;;;21.19;41.68
54948;BME280;41113;41.882;12.530;2023-04-28T05:23:48;101555.88;;;21.75;40.06
54948;BME280;41113;41.882;12.530;2023-04-28T05:26:14;101561.16;;;20.25;41.96
54948;BME280;41113;41.882;12.530;2023-04-28T05:28:40;101561.22;;;19.04;42.05
54948;BME280;41113;41.882;12.530;2023-04-28T05:31:05;101558.16;;;18.99;42.83
54948;BME280;41113;41.882;12.530;2023-04-28T05:33:31;101556.28;;;19.08;42.52
54948;BME280;41113;41.882;12.530;2023-04-28T05:35:56;101557.38;;;20.26;41.85
54948;BME280;41113;41.882;12.530;2023-04-28T05:38:22;101563.34;;;19.90;39.37
54948;BME280;41113;41.882;12.530;2023-04-28T05:40:47;101565.66;;;20.01;41.26
54948;BME280;41113;41.882;12.530;2023-04-28T05:43:13;101568.88;;;20.52;38.81
54948;BME280;41113;41.882;12.530;2023-04-28T05:45:38;101572.78;;;21.26;39.58
54948;BME280;41113;41.882;12.530;2023-04-28T05:48:04;101570.09;;;20.49;38.69
54948;BME280;41113;41.882;12.530;2023-04-28T05:50:29;101560.38;;;20.70;38.12
54948;BME280;41113;41.882;12.530;2023-04-28T05:52:56;101570.31;;;20.32;38.29
54948;BME280;41113;41.882;12.530;2023-04-28T05:55:21;101567.41;;;19.94;39.47
54948;BME280;41113;41.882;12.530;2023-04-28T05:57:46;101582.16;;;20.55;37.04
54948;BME280;41113;41.882;12.530;2023-04-28T06:00:13;101581.63;;;20.20;39.88
54948;BME280;41113;41.882;12.530;2023-04-28T06:02:38;101577.03;;;20.21;38.62
54948;BME280;41113;41.882;12.530;2023-04-28T06:05:04;101572.16;;;20.00;39.73
54948;BME280;41113;41.882;12.530;2023-04-28T06:07:29;101582.34;;;20.54;37.16
54948;BME280;41113;41.882;12.530;2023-04-28T06:09:55;101575.81;;;19.68;39.29
54948;BME280;41113;41.882;12.530;2023-04-28T06:12:20;101576.69;;;19.69;38.21
54948;BME280;41113;41.882;12.530;2023-04-28T06:14:45;101568.16;;;20.58;38.31
54948;BME280;41113;41.882;12.530;2023-04-28T06:17:11;101577.84;;;22.77;36.55
54948;BME280;41113;41.882;12.530;2023-04-28T06:19:36;101568.91;;;24.29;33.61
54948;BME280;41113;41.882;12.530;2023-04-28T06:22:01;101579.78;;;23.75;34.43
54948;BME280;41113;41.882;12.530;2023-04-28T06:24:27;101574.63;;;24.00;33.61
54948;BME280;41113;41.882;12.530;2023-04-28T06:26:53;101575.34;;;24.49;33.66
54948;BME280;41113;41.882;12.530;2023-04-28T06:29:18;101580.13;;;25.28;32.63
54948;BME280;41113;41.882;12.530;2023-04-28T06:31:44;101584.22;;;26.37;30.94
54948;BME280;41113;41.882;12.530;2023-04-28T06:34:10;101577.81;;;25.32;29.30
54948;BME280;41113;41.882;12.530;2023-04-28T06:36:35;101580.72;;;23.88;32.21
54948;BME280;41113;41.882;12.530;2023-04-28T06:39:02;101586.09;;;24.44;30.54
54948;BME280;41113;41.882;12.530;2023-04-28T06:41:27;101592.03;;;24.55;31.73
54948;BME280;41113;41.882;12.530;2023-04-28T06:43:53;101599.53;;;24.87;31.20
54948;BME280;41113;41.882;12.530;2023-04-28T06:46:19;101601.19;;;23.93;32.25
54948;BME280;41113;41.882;12.530;2023-04-28T06:48:45;101598.97;;;22.32;34.68
54948;BME280;41113;41.882;12.530;2023-04-28T06:51:11;101601.06;;;21.33;36.47
54948;BME280;41113;41.882;12.530;2023-04-28T06:53:36;101607.00;;;19.66;38.92
54948;BME280;41113;41.882;12.530;2023-04-28T06:56:02;101601.94;;;19.54;39.28
54948;BME280;41113;41.882;12.530;2023-04-28T06:58:27;101603.25;;;19.02;40.07
54948;BME280;41113;41.882;12.530;2023-04-28T07:00:53;101603.59;;;19.15;39.93
54948;BME280;41113;41.882;12.530;2023-04-28T07:03:18;101601.56;;;19.25;39.98
54948;BME280;41113;41.882;12.530;2023-04-28T07:05:44;101599.66;;;19.42;39.84
54948;BME280;41113;41.882;12.530;2023-04-28T07:08:09;101614.75;;;20.01;38.92
54948;BME280;41113;41.882;12.530;2023-04-28T07:10:35;101616.69;;;20.40;38.38
54948;BME280;41113;41.882;12.530;2023-04-28T07:13:01;101616.22;;;20.90;37.51
54948;BME280;41113;41.882;12.530;2023-04-28T07:15:27;101626.53;;;21.03;37.56
54948;BME280;41113;41.882;12.530;2023-04-28T07:17:52;101623.22;;;21.16;37.38
54948;BME280;41113;41.882;12.530;2023-04-28T07:20:17;101627.84;;;21.15;37.54
54948;BME280;41113;41.882;12.530;2023-04-28T07:22:43;101621.19;;;21.09;37.69
54948;BME280;41113;41.882;12.530;2023-04-28T07:25:09;101631.22;;;21.17;37.45
54948;BME280;41113;41.882;12.530;2023-04-28T07:27:34;101627.84;;;21.15;37.35
54948;BME280;41113;41.882;12.530;2023-04-28T07:29:59;101623.75;;;21.11;37.29
54948;BME280;41113;41.882;12.530;2023-04-28T07:32:25;101618.63;;;21.08;37.52
54948;BME280;41113;41.882;12.530;2023-04-28T07:34:50;101614.47;;;21.20;37.24
54948;BME280;41113;41.882;12.530;2023-04-28T07:37:16;101614.78;;;21.25;37.00
54948;BME280;41113;41.882;12.530;2023-04-28T07:39:42;101622.91;;;21.33;36.72
54948;BME280;41113;41.882;12.530;2023-04-28T07:42:08;101625.81;;;21.55;36.08
54948;BME280;41113;41.882;12.530;2023-04-28T07:44:34;101625.94;;;21.38;36.47
54948;BME280;41113;41.882;12.530;2023-04-28T07:46:59;101621.88;;;21.72;35.96
54948;BME280;41113;41.882;12.530;2023-04-28T07:49:27;101626.56;;;21.26;36.21
54948;BME280;41113;41.882;12.530;2023-04-28T07:51:52;101628.56;;;21.32;36.83
54948;BME280;41113;41.882;12.530;2023-04-28T07:54:19;101630.44;;;21.31;36.40
54948;BME280;41113;41.882;12.530;2023-04-28T07:56:45;101611.97;;;21.33;35.68
54948;BME280;41113;41.882;12.530;2023-04-28T07:59:10;101622.25;;;21.69;35.45
54948;BME280;41113;41.882;12.530;2023-04-28T08:01:36;101615.56;;;22.01;34.77
54948;BME280;41113;41.882;12.530;2023-04-28T08:04:01;101613.03;;;21.99;34.38
54948;BME280;41113;41.882;12.530;2023-04-28T08:06:26;101608.72;;;22.20;33.32
54948;BME280;41113;41.882;12.530;2023-04-28T08:08:52;101619.16;;;22.46;33.31
54948;BME280;41113;41.882;12.530;2023-04-28T08:11:17;101616.25;;;22.32;33.18
54948;BME280;41113;41.882;12.530;2023-04-28T08:13:42;101616.00;;;22.63;32.75
54948;BME280;41113;41.882;12.530;2023-04-28T08:16:08;101615.88;;;22.72;32.45
54948;BME280;41113;41.882;12.530;2023-04-28T08:18:33;101616.34;;;22.75;32.49
54948;BME280;41113;41.882;12.530;2023-04-28T08:20:58;101614.09;;;22.79;32.63
54948;BME280;41113;41.882;12.530;2023-04-28T08:23:24;101606.34;;;22.67;32.47
54948;BME280;41113;41.882;12.530;2023-04-28T08:25:52;101604.28;;;22.70;32.10
54948;BME280;41113;41.882;12.530;2023-04-28T08:28:19;101605.22;;;22.77;32.35
54948;BME280;41113;41.882;12.530;2023-04-28T08:30:45;101602.91;;;22.95;32.26
54948;BME280;41113;41.882;12.530;2023-04-28T08:33:10;101607.19;;;23.04;32.10
54948;BME280;41113;41.882;12.530;2023-04-28T08:35:35;101605.91;;;23.00;30.99
54948;BME280;41113;41.882;12.530;2023-04-28T08:38:01;101607.97;;;22.98;32.06
54948;BME280;41113;41.882;12.530;2023-04-28T08:40:26;101611.78;;;22.97;32.19
54948;BME280;41113;41.882;12.530;2023-04-28T08:42:54;101612.56;;;22.91;31.65
54948;BME280;41113;41.882;12.530;2023-04-28T08:45:20;101608.91;;;23.05;32.04
54948;BME280;41113;41.882;12.530;2023-04-28T08:47:48;101614.66;;;22.89;31.33
54948;BME280;41113;41.882;12.530;2023-04-28T08:50:14;101622.00;;;22.74;31.96
54948;BME280;41113;41.882;12.530;2023-04-28T08:52:43;101617.38;;;22.74;32.46
54948;BME280;41113;41.882;12.530;2023-04-28T08:55:11;101607.34;;;22.96;32.52
54948;BME280;41113;41.882;12.530;2023-04-28T08:58:03;101606.81;;;23.07;30.47
54948;BME280;41113;41.882;12.530;2023-04-28T09:00:29;101603.50;;;23.12;32.25
54948;BME280;41113;41.882;12.530;2023-04-28T09:02:54;101601.88;;;23.17;32.08
54948;BME280;41113;41.882;12.530;2023-04-28T09:05:20;101600.66;;;23.26;32.44
54948;BME280;41113;41.882;12.530;2023-04-28T09:07:46;101606.66;;;23.37;32.38
54948;BME280;41113;41.882;12.530;2023-04-28T09:10:20;101597.00;;;23.41;32.06
54948;BME280;41113;41.882;12.530;2023-04-28T09:12:47;101602.47;;;23.41;32.58
54948;BME280;41113;41.882;12.530;2023-04-28T09:15:27;101596.53;;;23.37;31.51
54948;BME280;41113;41.882;12.530;2023-04-28T09:17:53;101590.22;;;23.37;32.81
54948;BME280;41113;41.882;12.530;2023-04-28T09:20:22;101592.69;;;23.32;32.86
54948;BME280;41113;41.882;12.530;2023-04-28T09:22:49;101600.72;;;23.33;32.30
54948;BME280;41113;41.882;12.530;2023-04-28T09:25:15;101590.41;;;23.35;31.88
54948;BME280;41113;41.882;12.530;2023-04-28T09:27:40;101592.69;;;23.32;28.34
54948;BME280;41113;41.882;12.530;2023-04-28T09:30:06;101594.81;;;23.08;30.37
54948;BME280;41113;41.882;12.530;2023-04-28T09:32:33;101595.59;;;23.23;30.26
54948;BME280;41113;41.882;12.530;2023-04-28T09:34:59;101593.94;;;23.29;30.13
54948;BME280;41113;41.882;12.530;2023-04-28T09:37:26;101593.50;;;23.25;30.03
54948;BME280;41113;41.882;12.530;2023-04-28T09:39:54;101585.91;;;23.27;29.89
54948;BME280;41113;41.882;12.530;2023-04-28T09:44:58;101584.72;;;23.37;29.71
54948;BME280;41113;41.882;12.530;2023-04-28T09:47:24;101577.53;;;23.36;29.51
54948;BME280;41113;41.882;12.530;2023-04-28T09:49:56;101580.53;;;23.41;28.94
54948;BME280;41113;41.882;12.530;2023-04-28T09:52:23;101581.88;;;23.45;28.88
54948;BME280;41113;41.882;12.530;2023-04-28T09:54:50;101585.69;;;23.50;29.27
54948;BME280;41113;41.882;12.530;2023-04-28T09:57:16;101568.81;;;23.47;28.50
54948;BME280;41113;41.882;12.530;2023-04-28T09:59:52;101578.59;;;23.56;29.02
54948;BME280;41113;41.882;12.530;2023-04-28T10:02:19;101579.06;;;23.66;29.84
54948;BME280;41113;41.882;12.530;2023-04-28T10:04:46;101575.56;;;23.51;29.39
54948;BME280;41113;41.882;12.530;2023-04-28T10:07:12;101580.66;;;23.54;29.71
54948;BME280;41113;41.882;12.530;2023-04-28T10:09:44;101578.53;;;23.49;27.04
54948;BME280;41113;41.882;12.530;2023-04-28T10:12:22;101579.16;;;23.51;28.89
54948;BME280;41113;41.882;12.530;2023-04-28T10:14:49;101572.53;;;23.67;29.47
54948;BME280;41113;41.882;12.530;2023-04-28T10:17:18;101566.84;;;23.69;29.51
54948;BME280;41113;41.882;12.530;2023-04-28T10:19:45;101560.03;;;23.58;29.18
54948;BME280;41113;41.882;12.530;2023-04-28T10:27:32;101557.94;;;23.60;29.21
54948;BME280;41113;41.882;12.530;2023-04-28T10:32:37;101567.88;;;23.40;27.91
54948;BME280;41113;41.882;12.530;2023-04-28T10:40:39;101561.50;;;23.33;28.52
54948;BME280;41113;41.882;12.530;2023-04-28T10:43:06;101559.81;;;23.32;28.75
54948;BME280;41113;41.882;12.530;2023-04-28T10:48:13;101556.53;;;23.43;29.17
54948;BME280;41113;41.882;12.530;2023-04-28T10:56:17;101545.44;;;23.29;29.02
54948;BME280;41113;41.882;12.530;2023-04-28T10:58:44;101546.91;;;23.25;29.63
54948;BME280;41113;41.882;12.530;2023-04-28T11:04:07;101540.81;;;23.30;29.54
54948;BME280;41113;41.882;12.530;2023-04-28T11:06:41;101533.28;;;23.39;29.91
54948;BME280;41113;41.882;12.530;2023-04-28T11:16:59;101533.66;;;23.29;30.11
54948;BME280;41113;41.882;12.530;2023-04-28T11:19:43;101531.56;;;23.31;28.88
54948;BME280;41113;41.882;12.530;2023-04-28T11:22:20;101527.72;;;23.25;29.09
54948;BME280;41113;41.882;12.530;2023-04-28T11:24:59;101519.25;;;23.20;27.45
54948;BME280;41113;41.882;12.530;2023-04-28T11:27:26;101526.81;;;23.18;29.46
54948;BME280;41113;41.882;12.530;2023-04-28T11:29:52;101522.22;;;23.25;29.57
54948;BME280;41113;41.882;12.530;2023-04-28T11:32:25;101521.34;;;23.18;27.25
54948;BME280;41113;41.882;12.530;2023-04-28T11:34:51;101520.53;;;23.24;29.00
54948;BME280;41113;41.882;12.530;2023-04-28T11:37:17;101520.69;;;23.16;29.09
54948;BME280;41113;41.882;12.530;2023-04-28T11:39:45;101519.00;;;23.15;29.01
54948;BME280;41113;41.882;12.530;2023-04-28T11:42:10;101509.00;;;23.08;28.81
54948;BME280;41113;41.882;12.530;2023-04-28T11:44:36;101513.13;;;22.97;27.67
54948;BME280;41113;41.882;12.530;2023-04-28T11:47:03;101515.09;;;23.03;28.41
54948;BME280;41113;41.882;12.530;2023-04-28T11:49:30;101528.78;;;23.03;28.48
54948;BME280;41113;41.882;12.530;2023-04-28T11:52:03;101521.50;;;23.10;27.32
54948;BME280;41113;41.882;12.530;2023-04-28T11:54:30;101526.81;;;23.18;27.86
54948;BME280;41113;41.882;12.530;2023-04-28T11:56:56;101518.84;;;23.23;28.04
54948;BME280;41113;41.882;12.530;2023-04-28T11:59:24;101510.81;;;23.22;27.31
54948;BME280;41113;41.882;12.530;2023-04-28T12:01:52;101515.88;;;23.18;27.68
54948;BME280;41113;41.882;12.530;2023-04-28T12:04:38;101515.72;;;23.05;27.37
54948;BME280;41113;41.882;12.530;2023-04-28T12:09:31;101511.19;;;23.12;27.60
54948;BME280;41113;41.882;12.530;2023-04-28T12:12:02;101502.97;;;23.12;28.20
54948;BME280;41113;41.882;12.530;2023-04-28T12:14:29;101507.78;;;23.10;28.10
54948;BME280;41113;41.882;12.530;2023-04-28T12:17:00;101507.50;;;23.05;28.24
54948;BME280;41113;41.882;12.530;2023-04-28T12:19:26;101508.75;;;23.03;27.93
54948;BME280;41113;41.882;12.530;2023-04-28T12:24:24;101506.94;;;23.10;27.90
54948;BME280;41113;41.882;12.530;2023-04-28T12:26:51;101506.09;;;23.09;27.89
54948;BME280;41113;41.882;12.530;2023-04-28T12:29:36;101496.56;;;23.05;27.49
54948;BME280;41113;41.882;12.530;2023-04-28T12:32:03;101495.47;;;23.00;27.68
54948;BME280;41113;41.882;12.530;2023-04-28T12:34:30;101498.41;;;22.98;27.17
54948;BME280;41113;41.882;12.530;2023-04-28T12:36:58;101504.94;;;22.97;26.98
54948;BME280;41113;41.882;12.530;2023-04-28T12:39:23;101501.78;;;23.00;26.69
54948;BME280;41113;41.882;12.530;2023-04-28T12:41:50;101492.03;;;22.91;26.32
54948;BME280;41113;41.882;12.530;2023-04-28T12:44:15;101497.25;;;22.86;26.59
54948;BME280;41113;41.882;12.530;2023-04-28T12:46:40;101490.06;;;22.85;26.82
54948;BME280;41113;41.882;12.530;2023-04-28T12:49:06;101490.28;;;22.83;26.88
54948;BME280;41113;41.882;12.530;2023-04-28T12:51:32;101486.94;;;22.88;26.46
54948;BME280;41113;41.882;12.530;2023-04-28T12:53:59;101475.59;;;22.91;26.91
54948;BME280;41113;41.882;12.530;2023-04-28T12:56:25;101478.06;;;22.86;26.72
54948;BME280;41113;41.882;12.530;2023-04-28T12:58:51;101479.59;;;22.74;26.62
54948;BME280;41113;41.882;12.530;2023-04-28T13:01:16;101483.66;;;22.78;26.81
54948;BME280;41113;41.882;12.530;2023-04-28T13:03:41;101480.56;;;22.81;26.83
54948;BME280;41113;41.882;12.530;2023-04-28T13:06:08;101478.84;;;22.80;26.17
54948;BME280;41113;41.882;12.530;2023-04-28T13:08:35;101477.16;;;22.79;26.25
54948;BME280;41113;41.882;12.530;2023-04-28T13:11:01;101476.78;;;22.82;26.42
54948;BME280;41113;41.882;12.530;2023-04-28T13:13:28;101467.22;;;22.78;26.35
54948;BME280;41113;41.882;12.530;2023-04-28T13:15:54;101465.66;;;22.68;25.12